createdAt,value
2018-12-23T00:00:45.899Z,7.80
2018-12-23T00:03:15.574Z,7.70
2018-12-23T00:05:44.835Z,7.50
2018-12-23T00:08:13.990Z,7.40
2018-12-23T00:10:44.185Z,7.30
2018-12-23T00:13:13.477Z,7.20
2018-12-23T00:15:42.667Z,7.20
2018-12-23T00:18:11.808Z,7.20
2018-12-23T00:20:40.932Z,7.10
2018-12-23T00:23:10.195Z,7.00
2018-12-23T00:25:39.363Z,7.10
2018-12-23T00:28:08.659Z,7.00
2018-12-23T00:30:37.794Z,6.90
2018-12-23T00:33:07.675Z,6.80
2018-12-23T00:35:36.882Z,6.80
2018-12-23T00:38:06.795Z,6.80
2018-12-23T00:40:35.909Z,6.70
2018-12-23T00:43:06.226Z,6.70
2018-12-23T00:45:35.327Z,6.70
2018-12-23T00:48:05.214Z,6.60
2018-12-23T00:50:34.461Z,6.60
2018-12-23T00:53:04.907Z,6.60
2018-12-23T00:55:34.239Z,6.60
2018-12-23T00:58:03.482Z,6.60
2018-12-23T01:00:32.620Z,6.60
2018-12-23T01:03:01.918Z,6.60
2018-12-23T01:05:31.026Z,6.60
2018-12-23T01:08:00.187Z,6.60
2018-12-23T01:10:29.235Z,6.60
2018-12-23T01:12:58.370Z,6.50
2018-12-23T01:15:27.558Z,6.50
2018-12-23T01:17:58.016Z,6.60
2018-12-23T01:20:27.205Z,6.50
2018-12-23T01:22:56.349Z,6.50
2018-12-23T01:25:25.485Z,6.50
2018-12-23T01:27:54.631Z,6.40
2018-12-23T01:30:23.858Z,6.40
2018-12-23T01:32:52.990Z,6.40
2018-12-23T01:35:22.630Z,6.50
2018-12-23T01:37:51.848Z,6.50
2018-12-23T01:40:21.039Z,6.50
2018-12-23T01:42:50.208Z,6.50
2018-12-23T01:45:19.468Z,6.50
2018-12-23T01:47:48.587Z,6.50
2018-12-23T01:50:17.846Z,6.50
2018-12-23T01:52:46.907Z,6.50
2018-12-23T01:55:16.124Z,6.50
2018-12-23T01:57:45.273Z,6.50
2018-12-23T02:00:14.480Z,6.60
2018-12-23T02:02:43.577Z,6.50
2018-12-23T02:05:12.833Z,6.50
2018-12-23T02:07:41.963Z,6.60
2018-12-23T02:10:11.366Z,6.60
2018-12-23T02:12:40.454Z,6.60
2018-12-23T02:15:09.859Z,6.50
2018-12-23T02:17:39.088Z,6.60
2018-12-23T02:20:08.457Z,6.60
2018-12-23T02:22:37.653Z,6.60
2018-12-23T02:25:06.956Z,6.60
2018-12-23T02:27:36.106Z,6.60
2018-12-23T02:30:05.685Z,6.60
2018-12-23T02:32:35.445Z,6.70
2018-12-23T02:35:04.818Z,6.60
2018-12-23T02:37:33.910Z,6.60
2018-12-23T02:40:03.208Z,6.60
2018-12-23T02:42:32.407Z,6.60
2018-12-23T02:45:01.688Z,6.60
2018-12-23T02:47:30.886Z,6.50
2018-12-23T02:50:00.041Z,6.50
2018-12-23T02:52:29.311Z,6.50
2018-12-23T02:54:58.539Z,6.50
2018-12-23T02:57:27.678Z,6.50
2018-12-23T02:59:56.778Z,6.50
2018-12-23T03:02:25.978Z,6.60
2018-12-23T03:04:55.127Z,6.60
2018-12-23T03:07:24.234Z,6.50
2018-12-23T03:09:53.405Z,6.50
2018-12-23T03:12:22.578Z,6.50
2018-12-23T03:14:51.682Z,6.60
2018-12-23T03:17:20.783Z,6.50
2018-12-23T03:19:50.053Z,6.50
2018-12-23T03:22:19.226Z,6.50
2018-12-23T03:24:48.349Z,6.40
2018-12-23T03:27:17.520Z,6.40
2018-12-23T03:29:46.685Z,6.40
2018-12-23T03:32:15.889Z,6.50
2018-12-23T03:34:45.114Z,6.50
2018-12-23T03:37:14.242Z,6.50
2018-12-23T03:39:43.426Z,6.50
2018-12-23T03:42:12.664Z,6.50
2018-12-23T03:44:42.048Z,6.50
2018-12-23T03:47:11.191Z,6.50
2018-12-23T03:49:40.373Z,6.50
2018-12-23T03:52:09.509Z,6.50
2018-12-23T03:54:38.801Z,6.40
2018-12-23T03:57:07.943Z,6.40
2018-12-23T03:59:37.185Z,6.40
2018-12-23T04:02:06.534Z,6.50
2018-12-23T04:04:35.712Z,6.50
2018-12-23T04:07:04.865Z,6.60
2018-12-23T04:09:33.997Z,6.50
2018-12-23T04:12:03.737Z,6.50
2018-12-23T04:14:32.925Z,6.50
2018-12-23T04:17:01.985Z,6.50
2018-12-23T04:19:31.428Z,6.50
2018-12-23T04:22:00.688Z,6.50
2018-12-23T04:24:30.014Z,6.50
2018-12-23T04:26:59.227Z,6.60
2018-12-23T04:29:28.355Z,6.60
2018-12-23T04:31:57.568Z,6.60
2018-12-23T04:34:26.842Z,6.60
2018-12-23T04:36:55.956Z,6.70
2018-12-23T04:39:25.238Z,6.60
2018-12-23T04:41:54.441Z,6.70
2018-12-23T04:44:23.651Z,6.60
2018-12-23T04:46:52.707Z,6.60
2018-12-23T04:49:21.910Z,6.60
2018-12-23T04:51:51.137Z,6.60
2018-12-23T04:54:20.343Z,6.70
2018-12-23T04:56:49.496Z,6.70
2018-12-23T04:59:18.561Z,6.60
2018-12-23T05:01:48.242Z,6.60
2018-12-23T05:04:17.466Z,6.60
2018-12-23T05:06:46.593Z,6.60
2018-12-23T05:09:15.686Z,6.60
2018-12-23T05:11:45.402Z,6.60
2018-12-23T05:14:14.539Z,6.60
2018-12-23T05:16:43.790Z,6.60
2018-12-23T05:19:12.940Z,6.60
2018-12-23T05:21:42.190Z,6.60
2018-12-23T05:24:11.376Z,6.50
2018-12-23T05:26:40.606Z,6.50
2018-12-23T05:29:09.704Z,6.50
2018-12-23T05:31:39.024Z,6.50
2018-12-23T05:34:09.050Z,6.50
2018-12-23T05:36:38.532Z,6.60
2018-12-23T05:39:08.251Z,6.60
2018-12-23T05:41:37.416Z,6.50
2018-12-23T05:44:06.512Z,6.60
2018-12-23T05:46:35.753Z,6.60
2018-12-23T05:49:05.434Z,6.60
2018-12-23T05:51:34.620Z,6.60
2018-12-23T05:54:03.732Z,6.60
2018-12-23T05:56:33.515Z,6.60
2018-12-23T05:59:02.661Z,6.60
2018-12-23T06:01:31.767Z,6.60
2018-12-23T06:04:00.891Z,6.60
2018-12-23T06:06:30.808Z,6.70
2018-12-23T06:09:00.574Z,6.60
2018-12-23T06:11:29.758Z,6.60
2018-12-23T06:13:59.081Z,6.60
2018-12-23T06:16:28.290Z,6.60
2018-12-23T06:18:57.451Z,6.60
2018-12-23T06:21:26.614Z,6.60
2018-12-23T06:23:55.709Z,6.70
2018-12-23T06:26:24.877Z,6.70
2018-12-23T06:28:53.989Z,6.70
2018-12-23T06:31:23.193Z,6.70
2018-12-23T06:33:52.328Z,6.60
2018-12-23T06:36:21.530Z,6.80
2018-12-23T06:38:50.653Z,6.80
2018-12-23T06:41:20.742Z,6.80
2018-12-23T06:43:49.956Z,6.70
2018-12-23T06:46:19.099Z,6.70
2018-12-23T06:48:48.367Z,6.70
2018-12-23T06:51:17.507Z,6.70
2018-12-23T06:53:47.303Z,6.70
2018-12-23T06:56:16.546Z,6.70
2018-12-23T06:58:45.773Z,6.70
2018-12-23T07:01:14.839Z,6.70
2018-12-23T07:03:43.972Z,6.70
2018-12-23T07:06:13.332Z,6.60
2018-12-23T07:08:42.774Z,6.60
2018-12-23T07:11:11.880Z,6.60
2018-12-23T07:13:41.080Z,6.60
2018-12-23T07:16:10.280Z,6.60
2018-12-23T07:18:39.414Z,6.60
2018-12-23T07:21:08.546Z,6.60
2018-12-23T07:23:38.245Z,6.60
2018-12-23T07:26:08.295Z,6.60
2018-12-23T07:28:37.465Z,6.60
2018-12-23T07:31:06.635Z,6.60
2018-12-23T07:33:35.791Z,6.70
2018-12-23T07:36:05.153Z,6.70
2018-12-23T07:38:34.531Z,6.80
2018-12-23T07:41:03.715Z,6.80
2018-12-23T07:43:32.789Z,6.70
2018-12-23T07:46:02.028Z,6.70
2018-12-23T07:48:31.291Z,6.70
2018-12-23T07:51:00.559Z,6.70
2018-12-23T07:53:29.781Z,6.70
2018-12-23T07:55:59.480Z,6.70
2018-12-23T07:58:28.674Z,6.70
2018-12-23T08:00:57.857Z,6.70
2018-12-23T08:03:27.529Z,6.70
2018-12-23T08:05:56.743Z,6.80
2018-12-23T08:08:25.810Z,6.80
2018-12-23T08:10:55.039Z,6.80
2018-12-23T08:13:24.214Z,6.80
2018-12-23T08:15:53.404Z,6.80
2018-12-23T08:18:23.633Z,6.80
2018-12-23T08:20:53.306Z,6.80
2018-12-23T08:23:22.439Z,6.80
2018-12-23T08:25:51.531Z,6.80
2018-12-23T08:28:20.734Z,6.80
2018-12-23T08:30:49.859Z,6.80
2018-12-23T08:33:19.026Z,6.80
2018-12-23T08:35:48.267Z,6.80
2018-12-23T08:38:17.639Z,6.80
2018-12-23T08:40:46.777Z,6.90
2018-12-23T08:43:16.280Z,6.90
2018-12-23T08:45:45.477Z,6.90
2018-12-23T08:48:14.674Z,6.90
2018-12-23T08:50:43.739Z,6.90
2018-12-23T08:53:13.466Z,7.00
2018-12-23T08:55:44.026Z,7.00
2018-12-23T08:58:13.306Z,7.10
2018-12-23T09:00:42.538Z,7.00
2018-12-23T09:03:18.636Z,7.00
2018-12-23T09:05:43.904Z,7.10
2018-12-23T09:08:13.118Z,7.10
2018-12-23T09:10:42.372Z,7.10
2018-12-23T09:13:11.490Z,7.10
2018-12-23T09:15:40.783Z,7.10
2018-12-23T09:18:19.270Z,7.20
2018-12-23T09:20:46.041Z,7.20
2018-12-23T09:23:15.239Z,7.20
2018-12-23T09:25:44.325Z,7.20
2018-12-23T09:28:13.615Z,7.20
2018-12-23T09:30:42.764Z,7.30
2018-12-23T09:33:12.156Z,7.30
2018-12-23T09:35:41.246Z,7.40
2018-12-23T09:38:10.458Z,7.40
2018-12-23T09:40:39.641Z,7.50
2018-12-23T09:43:08.943Z,7.50
2018-12-23T09:45:37.970Z,7.60
2018-12-23T09:48:07.658Z,7.70
2018-12-23T09:50:36.770Z,7.70
2018-12-23T09:53:07.823Z,7.70
2018-12-23T09:55:36.984Z,7.80
2018-12-23T09:58:06.359Z,7.90
2018-12-23T10:00:35.467Z,8.00
2018-12-23T10:03:04.970Z,8.00
2018-12-23T10:05:34.147Z,8.00
2018-12-23T10:08:10.190Z,8.20
2018-12-23T10:10:37.438Z,8.20
2018-12-23T10:13:07.567Z,8.30
2018-12-23T10:15:36.762Z,8.30
2018-12-23T10:18:06.222Z,8.30
2018-12-23T10:20:35.372Z,8.30
2018-12-23T10:23:05.533Z,8.30
2018-12-23T10:25:34.615Z,8.40
2018-12-23T10:28:04.750Z,8.40
2018-12-23T10:30:33.813Z,8.50
2018-12-23T10:33:03.863Z,8.50
2018-12-23T10:35:33.091Z,8.70
2018-12-23T10:38:02.209Z,8.80
2018-12-23T10:40:31.422Z,8.80
2018-12-23T10:43:01.405Z,8.90
2018-12-23T10:45:30.656Z,8.80
2018-12-23T10:48:00.735Z,8.90
2018-12-23T10:50:29.919Z,8.90
2018-12-23T10:52:59.079Z,8.90
2018-12-23T10:55:28.194Z,8.90
2018-12-23T10:57:57.383Z,9.00
2018-12-23T11:00:26.582Z,9.00
2018-12-23T11:02:55.718Z,9.10
2018-12-23T11:05:24.870Z,9.10
2018-12-23T11:07:53.963Z,9.10
2018-12-23T11:10:23.234Z,9.00
2018-12-23T11:12:52.342Z,9.10
2018-12-23T11:15:21.496Z,9.10
2018-12-23T11:17:51.252Z,9.10
2018-12-23T11:20:20.442Z,9.10
2018-12-23T11:22:49.495Z,9.10
2018-12-23T11:25:18.630Z,9.20
2018-12-23T11:27:47.788Z,9.20
2018-12-23T11:30:16.896Z,9.20
2018-12-23T11:32:46.067Z,9.20
2018-12-23T11:35:15.632Z,9.10
2018-12-23T11:37:44.875Z,9.20
2018-12-23T11:40:14.599Z,9.20
2018-12-23T11:42:43.731Z,9.20
2018-12-23T11:45:13.081Z,9.20
2018-12-23T11:47:42.287Z,9.20
2018-12-23T11:50:11.498Z,9.20
2018-12-23T11:52:40.688Z,9.30
2018-12-23T11:55:09.798Z,9.20
2018-12-23T11:57:39.325Z,9.30
2018-12-23T12:00:08.614Z,9.20
2018-12-23T12:02:37.895Z,9.20
2018-12-23T12:05:07.006Z,9.20
2018-12-23T12:07:36.136Z,9.20
2018-12-23T12:10:06.092Z,9.10
2018-12-23T12:12:35.187Z,9.10
2018-12-23T12:15:04.566Z,9.20
2018-12-23T12:17:33.651Z,9.20
2018-12-23T12:20:02.825Z,9.20
2018-12-23T12:22:31.839Z,9.20
2018-12-23T12:25:00.945Z,9.20
2018-12-23T12:27:29.995Z,9.20
2018-12-23T12:29:59.233Z,9.20
2018-12-23T12:32:28.338Z,9.30
2018-12-23T12:34:59.233Z,9.30
2018-12-23T12:37:28.502Z,9.20
2018-12-23T12:39:57.629Z,9.20
2018-12-23T12:42:26.713Z,9.20
2018-12-23T12:44:55.857Z,9.20
2018-12-23T12:47:25.079Z,9.20
2018-12-23T12:49:54.203Z,9.20
2018-12-23T12:52:23.396Z,9.20
2018-12-23T12:54:52.591Z,9.20
2018-12-23T12:57:21.709Z,9.20
2018-12-23T12:59:50.892Z,9.20
2018-12-23T13:02:20.037Z,9.20
2018-12-23T13:04:49.208Z,9.20
2018-12-23T13:07:18.371Z,9.20
2018-12-23T13:09:47.483Z,9.20
2018-12-23T13:12:17.650Z,9.20
2018-12-23T13:14:46.846Z,9.20
2018-12-23T13:17:16.010Z,9.20
2018-12-23T13:19:45.102Z,9.10
2018-12-23T13:22:14.301Z,9.10
2018-12-23T13:24:43.513Z,9.10
2018-12-23T13:27:12.995Z,9.10
2018-12-23T13:29:42.221Z,9.00
2018-12-23T13:32:11.361Z,9.00
2018-12-23T13:34:40.661Z,8.90
2018-12-23T13:37:09.890Z,8.90
2018-12-23T13:39:39.208Z,9.00
2018-12-23T13:42:31.436Z,9.00
2018-12-23T13:46:07.620Z,9.00
2018-12-23T13:48:53.487Z,9.00
2018-12-23T13:51:33.201Z,8.90
2018-12-23T13:55:13.863Z,8.90
2018-12-23T13:57:59.730Z,8.80
2018-12-23T14:00:40.588Z,8.80
2018-12-23T14:03:30.555Z,8.70
2018-12-23T14:06:56.556Z,8.60
2018-12-23T14:10:33.090Z,8.50
2018-12-23T14:13:02.345Z,8.40
2018-12-23T14:15:31.539Z,8.30
2018-12-23T14:18:00.701Z,8.20
2018-12-23T14:20:30.770Z,8.10
2018-12-23T14:22:59.987Z,7.90
2018-12-23T14:25:29.145Z,7.70
2018-12-23T14:27:58.245Z,7.60
2018-12-23T14:30:28.234Z,7.50
2018-12-23T14:32:57.287Z,7.50
2018-12-23T14:35:26.506Z,7.40
2018-12-23T14:37:55.727Z,7.30
2018-12-23T14:40:24.914Z,7.20
2018-12-23T14:42:54.054Z,7.20
2018-12-23T14:45:23.851Z,7.10
2018-12-23T14:47:52.971Z,7.10
2018-12-23T14:50:22.199Z,7.10
2018-12-23T14:52:51.271Z,7.00
2018-12-23T14:55:20.426Z,7.00
2018-12-23T14:57:49.551Z,6.90
2018-12-23T15:00:18.783Z,6.90
2018-12-23T15:02:47.897Z,6.90
2018-12-23T15:05:17.038Z,6.80
2018-12-23T15:07:46.640Z,6.80
2018-12-23T15:10:16.419Z,6.80
2018-12-23T15:12:46.243Z,6.70
2018-12-23T15:15:15.734Z,6.70
2018-12-23T15:17:45.499Z,6.70
2018-12-23T15:20:15.989Z,6.70
2018-12-23T15:22:45.781Z,6.70
2018-12-23T15:25:15.438Z,6.70
2018-12-23T15:27:44.883Z,6.80
2018-12-23T15:30:14.544Z,6.80
2018-12-23T15:32:44.053Z,6.80
2018-12-23T15:35:14.788Z,6.80
2018-12-23T15:37:44.154Z,6.80
2018-12-23T15:40:13.719Z,6.80
2018-12-23T15:42:42.962Z,6.70
2018-12-23T15:45:12.222Z,6.70
2018-12-23T15:47:41.317Z,6.70
2018-12-23T15:50:10.549Z,6.60
2018-12-23T15:52:39.718Z,6.60
2018-12-23T15:55:08.908Z,6.60
2018-12-23T15:57:38.014Z,6.70
2018-12-23T16:00:07.954Z,6.60
2018-12-23T16:02:37.046Z,6.60
2018-12-23T16:05:06.313Z,6.60
2018-12-23T16:07:35.486Z,6.60
2018-12-23T16:10:05.593Z,6.50
2018-12-23T16:12:34.736Z,6.60
2018-12-23T16:15:04.339Z,6.60
2018-12-23T16:17:33.466Z,6.60
2018-12-23T16:20:02.628Z,6.60
2018-12-23T16:22:31.766Z,6.60
2018-12-23T16:25:00.960Z,6.60
2018-12-23T16:27:30.147Z,6.60
2018-12-23T16:29:59.298Z,6.60
2018-12-23T16:32:28.424Z,6.60
2018-12-23T16:34:57.607Z,6.60
2018-12-23T16:37:26.746Z,6.60
2018-12-23T16:39:59.561Z,6.60
2018-12-23T16:42:27.252Z,6.60
2018-12-23T16:44:56.450Z,6.60
2018-12-23T16:47:25.585Z,6.60
2018-12-23T16:49:54.758Z,6.60
2018-12-23T16:52:23.964Z,6.60
2018-12-23T16:54:53.110Z,6.60
2018-12-23T16:57:22.200Z,6.60
2018-12-23T16:59:51.959Z,6.60
2018-12-23T17:02:21.103Z,6.60
2018-12-23T17:04:50.383Z,6.70
2018-12-23T17:07:19.570Z,6.70
2018-12-23T17:09:48.722Z,6.70
2018-12-23T17:12:18.467Z,6.60
2018-12-23T17:14:47.626Z,6.70
2018-12-23T17:17:16.782Z,6.70
2018-12-23T17:19:46.919Z,6.70
2018-12-23T17:22:16.192Z,6.80
2018-12-23T17:24:45.339Z,6.70
2018-12-23T17:27:14.628Z,6.70
2018-12-23T17:29:43.755Z,6.70
2018-12-23T17:32:13.648Z,6.80
2018-12-23T17:34:42.878Z,6.80
2018-12-23T17:37:12.147Z,6.90
2018-12-23T17:39:41.335Z,6.90
2018-12-23T17:42:10.478Z,6.90
2018-12-23T17:44:39.653Z,7.00
2018-12-23T17:47:08.872Z,7.10
2018-12-23T17:49:38.031Z,7.20
2018-12-23T17:52:08.949Z,7.20
2018-12-23T17:54:38.311Z,7.30
2018-12-23T17:57:07.520Z,7.40
2018-12-23T17:59:36.703Z,7.40
2018-12-23T18:02:06.075Z,7.40
2018-12-23T18:04:35.315Z,7.50
2018-12-23T18:07:04.575Z,7.50
2018-12-23T18:09:34.590Z,7.60
2018-12-23T18:12:03.929Z,7.60
2018-12-23T18:14:33.153Z,7.70
2018-12-23T18:17:02.431Z,7.70
2018-12-23T18:19:31.638Z,7.80
2018-12-23T18:22:00.877Z,7.80
2018-12-23T18:24:30.078Z,7.90
2018-12-23T18:26:59.455Z,8.00
2018-12-23T18:29:28.595Z,8.00
2018-12-23T18:31:58.310Z,8.00
2018-12-23T18:34:27.673Z,8.10
2018-12-23T18:36:57.912Z,8.20
2018-12-23T18:39:27.108Z,8.20
2018-12-23T18:41:56.564Z,8.30
2018-12-23T18:44:26.846Z,8.30
2018-12-23T18:46:56.187Z,8.40
2018-12-23T18:49:25.451Z,8.50
2018-12-23T18:51:54.650Z,8.40
2018-12-23T18:54:24.354Z,8.50
2018-12-23T18:56:59.467Z,8.50
2018-12-23T18:59:28.816Z,8.50
2018-12-23T19:02:06.262Z,8.60
2018-12-23T19:04:35.591Z,8.70
2018-12-23T19:07:05.550Z,8.70
2018-12-23T19:09:48.018Z,8.80
2018-12-23T19:12:29.302Z,8.80
2018-12-23T19:15:13.196Z,8.80
2018-12-23T19:17:58.742Z,8.80
2018-12-23T19:20:39.492Z,8.80
2018-12-23T19:25:28.124Z,8.80
2018-12-23T19:29:18.391Z,8.80
2018-12-23T19:32:32.754Z,8.80
2018-12-23T19:35:16.944Z,8.90
2018-12-23T19:37:57.028Z,8.90
2018-12-23T19:41:39.027Z,9.00
2018-12-23T19:44:21.187Z,9.10
2018-12-23T19:49:05.748Z,9.00
2018-12-23T19:52:54.853Z,9.00
2018-12-23T19:55:34.007Z,9.10
2018-12-23T19:58:26.837Z,9.20
2018-12-23T20:01:05.989Z,9.20
2018-12-23T20:03:57.457Z,9.20
2018-12-23T20:06:37.915Z,9.20
2018-12-23T20:09:21.106Z,9.20
2018-12-23T20:12:01.407Z,9.30
2018-12-23T20:15:45.186Z,9.20
2018-12-23T20:20:05.345Z,9.30
2018-12-23T20:22:47.396Z,9.30
2018-12-23T20:26:25.953Z,9.30
2018-12-23T20:29:20.067Z,9.20
2018-12-23T20:32:12.965Z,9.20
2018-12-23T20:34:57.295Z,9.30
2018-12-23T20:39:39.026Z,9.30
2018-12-23T20:43:32.256Z,9.30
2018-12-23T20:48:20.894Z,9.30
2018-12-23T20:52:02.751Z,9.30
2018-12-23T20:54:48.696Z,9.30
2018-12-23T20:58:26.453Z,9.40
2018-12-23T21:02:15.516Z,9.40
2018-12-23T21:05:07.216Z,9.50
2018-12-23T21:07:51.524Z,9.50
2018-12-23T21:10:31.874Z,9.50
2018-12-23T21:13:11.847Z,9.50
2018-12-23T21:16:26.155Z,9.60
2018-12-23T21:19:06.590Z,9.60
2018-12-23T21:21:50.132Z,9.50
2018-12-23T21:24:30.853Z,9.60
2018-12-23T21:27:12.686Z,9.70
2018-12-23T21:29:54.554Z,9.70
2018-12-23T21:34:48.582Z,9.70
2018-12-23T21:39:05.346Z,9.70
2018-12-23T21:41:45.510Z,9.70
2018-12-23T21:44:39.149Z,9.70
2018-12-23T21:49:17.217Z,9.70
2018-12-23T21:54:04.518Z,9.90
2018-12-23T21:58:15.820Z,9.80
2018-12-23T22:01:26.041Z,9.80
2018-12-23T22:05:09.925Z,9.80
2018-12-23T22:07:53.031Z,9.90
2018-12-23T22:10:44.048Z,10.00
2018-12-23T22:13:26.169Z,10.00
2018-12-23T22:15:56.312Z,10.00
2018-12-23T22:18:27.560Z,10.00
2018-12-23T22:20:58.266Z,10.10
2018-12-23T22:23:29.618Z,10.20
2018-12-23T22:26:01.546Z,10.20
2018-12-23T22:28:30.903Z,10.20
2018-12-23T22:31:00.569Z,10.20
2018-12-23T22:33:30.868Z,10.20
2018-12-23T22:36:00.369Z,10.30
2018-12-23T22:38:29.647Z,10.30
2018-12-23T22:41:04.329Z,10.30
2018-12-23T22:43:33.619Z,10.30
2018-12-23T22:46:02.731Z,10.30
2018-12-23T22:48:31.855Z,10.30
2018-12-23T22:51:01.685Z,10.30
2018-12-23T22:53:31.037Z,10.30
2018-12-23T22:56:00.275Z,10.30
2018-12-23T22:58:29.464Z,10.30
2018-12-23T23:00:59.451Z,10.30
2018-12-23T23:03:28.595Z,10.40
2018-12-23T23:05:58.209Z,10.30
2018-12-23T23:08:27.370Z,10.30
2018-12-23T23:10:56.480Z,10.30
2018-12-23T23:13:26.350Z,10.40
2018-12-23T23:15:55.516Z,10.40
2018-12-23T23:18:24.683Z,10.50
2018-12-23T23:20:53.875Z,10.50
2018-12-23T23:23:24.383Z,10.60
2018-12-23T23:25:53.484Z,10.60
2018-12-23T23:28:22.748Z,10.60
2018-12-23T23:30:51.879Z,10.60
2018-12-23T23:33:21.005Z,10.60
2018-12-23T23:35:50.131Z,10.80
2018-12-23T23:38:19.266Z,10.80
2018-12-23T23:40:48.391Z,10.80
2018-12-23T23:43:17.446Z,10.80
2018-12-23T23:45:46.615Z,10.80
2018-12-23T23:48:59.347Z,10.80
2018-12-23T23:51:40.554Z,10.80
2018-12-23T23:54:21.860Z,10.80
2018-12-23T23:57:03.471Z,10.80
2018-12-23T23:59:45.060Z,10.80
